createdAt,value
2016-12-12T00:01:14.437Z,0
2016-12-12T00:02:28.568Z,0
2016-12-12T00:03:42.465Z,0
2016-12-12T00:04:56.013Z,0
2016-12-12T00:06:09.882Z,0
2016-12-12T00:07:23.683Z,0
2016-12-12T00:08:37.229Z,0
2016-12-12T00:09:51.045Z,0
2016-12-12T00:11:05.061Z,0
2016-12-12T00:12:18.893Z,0
2016-12-12T00:13:32.718Z,0
2016-12-12T00:14:46.312Z,0
2016-12-12T00:15:59.871Z,0
2016-12-12T00:17:13.731Z,0
2016-12-12T00:18:27.530Z,0
2016-12-12T00:19:41.428Z,0
2016-12-12T00:20:55.327Z,0
2016-12-12T00:22:09.142Z,0
2016-12-12T00:23:22.711Z,0
2016-12-12T00:24:36.755Z,0
2016-12-12T00:25:50.532Z,0
2016-12-12T00:27:04.053Z,0
2016-12-12T00:28:17.973Z,0
2016-12-12T00:29:31.526Z,0
2016-12-12T00:30:45.704Z,0
2016-12-12T00:31:59.561Z,0
2016-12-12T00:33:13.121Z,0
2016-12-12T00:34:26.637Z,0
2016-12-12T00:35:40.480Z,0
2016-12-12T00:36:54.387Z,0
2016-12-12T00:38:08.338Z,0
2016-12-12T00:39:21.898Z,0
2016-12-12T00:40:35.845Z,0
2016-12-12T00:41:49.384Z,0
2016-12-12T00:43:03.556Z,0
2016-12-12T00:44:17.131Z,0
2016-12-12T00:45:30.896Z,0
2016-12-12T00:46:44.441Z,0
2016-12-12T00:47:58.030Z,0
2016-12-12T00:49:11.888Z,0
2016-12-12T00:50:25.706Z,0
2016-12-12T00:51:39.226Z,0
2016-12-12T00:52:53.435Z,0
2016-12-12T00:54:07.122Z,0
2016-12-12T00:56:14.069Z,0
2016-12-12T00:57:27.593Z,0
2016-12-12T00:58:41.512Z,0
2016-12-12T00:59:55.210Z,0
2016-12-12T01:01:09.751Z,0
2016-12-12T01:02:27.046Z,0
2016-12-12T01:03:49.885Z,0
2016-12-12T01:05:10.768Z,0
2016-12-12T01:06:33.212Z,0
2016-12-12T01:07:48.190Z,0
2016-12-12T01:09:01.771Z,0
2016-12-12T01:10:15.352Z,0
2016-12-12T01:11:28.954Z,0
2016-12-12T01:12:42.545Z,0
2016-12-12T01:13:56.082Z,0
2016-12-12T01:15:09.671Z,0
2016-12-12T01:16:23.650Z,0
2016-12-12T01:17:37.172Z,0
2016-12-12T01:18:52.933Z,0
2016-12-12T01:20:06.536Z,0
2016-12-12T01:21:20.140Z,0
2016-12-12T01:22:31.273Z,0
2016-12-12T01:23:42.396Z,0
2016-12-12T01:24:53.554Z,0
2016-12-12T01:26:04.777Z,0
2016-12-12T01:27:16.023Z,0
2016-12-12T01:28:27.193Z,0
2016-12-12T01:29:38.366Z,0
2016-12-12T01:30:49.534Z,0
2016-12-12T01:32:00.746Z,0
2016-12-12T01:33:13.823Z,0
2016-12-12T01:34:24.942Z,0
2016-12-12T01:35:36.072Z,0
2016-12-12T01:36:47.190Z,0
2016-12-12T01:37:58.583Z,0
2016-12-12T01:39:09.770Z,0
2016-12-12T01:40:21.216Z,0
2016-12-12T01:41:32.363Z,0
2016-12-12T01:42:43.474Z,0
2016-12-12T01:43:54.601Z,0
2016-12-12T01:45:05.874Z,0
2016-12-12T01:46:17.031Z,0
2016-12-12T01:47:28.554Z,0
2016-12-12T01:48:39.673Z,0
2016-12-12T01:49:50.787Z,0
2016-12-12T01:51:01.967Z,0
2016-12-12T01:52:13.094Z,0
2016-12-12T01:53:24.254Z,0
2016-12-12T01:54:35.403Z,0
2016-12-12T01:55:46.518Z,0
2016-12-12T01:56:57.662Z,0
2016-12-12T01:58:08.854Z,0
2016-12-12T01:59:20.070Z,0
2016-12-12T02:00:31.221Z,0
2016-12-12T02:01:42.342Z,0
2016-12-12T02:02:53.474Z,0
2016-12-12T02:04:04.986Z,0
2016-12-12T02:05:16.214Z,0
2016-12-12T02:06:27.331Z,0
2016-12-12T02:07:38.459Z,0
2016-12-12T02:08:49.588Z,0
2016-12-12T02:10:00.786Z,0
2016-12-12T02:11:11.947Z,0
2016-12-12T02:12:23.410Z,0
2016-12-12T02:13:34.539Z,0
2016-12-12T02:14:45.996Z,0
2016-12-12T02:15:57.107Z,0
2016-12-12T02:17:08.353Z,0
2016-12-12T02:18:19.451Z,0
2016-12-12T02:19:30.609Z,0
2016-12-12T02:20:41.747Z,0
2016-12-12T02:21:52.883Z,0
2016-12-12T02:23:04.119Z,0
2016-12-12T02:24:15.282Z,0
2016-12-12T02:25:26.487Z,0
2016-12-12T02:26:37.607Z,0
2016-12-12T02:27:48.738Z,0
2016-12-12T02:28:59.998Z,0
2016-12-12T02:30:11.136Z,0
2016-12-12T02:31:22.263Z,0
2016-12-12T02:32:35.532Z,0
2016-12-12T02:33:46.691Z,0
2016-12-12T02:34:57.889Z,0
2016-12-12T02:36:09.180Z,0
2016-12-12T02:37:20.401Z,0
2016-12-12T02:38:46.489Z,0
2016-12-12T02:39:57.773Z,0
2016-12-12T02:41:09.088Z,0
2016-12-12T02:42:20.335Z,0
2016-12-12T02:43:31.484Z,0
2016-12-12T02:44:42.592Z,0
2016-12-12T02:45:53.764Z,0
2016-12-12T02:47:04.876Z,0
2016-12-12T02:48:16.074Z,0
2016-12-12T02:49:27.201Z,0
2016-12-12T02:50:38.371Z,0
2016-12-12T02:51:49.557Z,0
2016-12-12T02:53:00.710Z,0
2016-12-12T02:54:11.864Z,0
2016-12-12T02:55:22.985Z,0
2016-12-12T02:56:34.127Z,0
2016-12-12T02:57:45.295Z,0
2016-12-12T02:58:56.394Z,0
2016-12-12T03:00:07.580Z,0
2016-12-12T03:01:18.744Z,0
2016-12-12T03:02:30.184Z,0
2016-12-12T03:03:41.358Z,0
2016-12-12T03:04:52.464Z,0
2016-12-12T03:06:03.654Z,0
2016-12-12T03:07:14.759Z,0
2016-12-12T03:08:25.869Z,0
2016-12-12T03:09:37.021Z,0
2016-12-12T03:10:48.134Z,0
2016-12-12T03:11:59.382Z,0
2016-12-12T03:13:10.828Z,0
2016-12-12T03:14:21.944Z,0
2016-12-12T03:15:33.160Z,0
2016-12-12T03:16:44.283Z,0
2016-12-12T03:17:55.377Z,0
2016-12-12T03:19:06.603Z,0
2016-12-12T03:20:17.733Z,0
2016-12-12T03:21:28.833Z,0
2016-12-12T03:22:40.004Z,0
2016-12-12T03:23:51.148Z,0
2016-12-12T03:25:02.350Z,0
2016-12-12T03:26:13.474Z,0
2016-12-12T03:27:24.612Z,0
2016-12-12T03:28:35.810Z,0
2016-12-12T03:29:46.954Z,0
2016-12-12T03:30:58.173Z,0
2016-12-12T03:32:09.621Z,0
2016-12-12T03:33:20.744Z,0
2016-12-12T03:34:31.884Z,0
2016-12-12T03:35:43.461Z,0
2016-12-12T03:36:54.693Z,0
2016-12-12T03:38:05.874Z,0
2016-12-12T03:39:17.025Z,0
2016-12-12T03:40:28.140Z,0
2016-12-12T03:41:39.270Z,0
2016-12-12T03:42:50.465Z,0
2016-12-12T03:44:01.571Z,0
2016-12-12T03:45:12.694Z,0
2016-12-12T03:46:26.028Z,0
2016-12-12T03:47:37.214Z,0
2016-12-12T03:48:48.502Z,0
2016-12-12T03:49:59.684Z,0
2016-12-12T03:51:10.883Z,0
2016-12-12T03:52:22.024Z,0
2016-12-12T03:53:33.199Z,0
2016-12-12T03:54:44.379Z,0
2016-12-12T03:55:55.569Z,0
2016-12-12T03:57:06.667Z,0
2016-12-12T03:58:17.863Z,0
2016-12-12T03:59:28.998Z,0
2016-12-12T04:00:40.130Z,0
2016-12-12T04:01:51.264Z,0
2016-12-12T04:03:02.785Z,0
2016-12-12T04:04:13.963Z,0
2016-12-12T04:05:25.074Z,0
2016-12-12T04:06:36.186Z,0
2016-12-12T04:07:47.311Z,0
2016-12-12T04:08:58.505Z,0
2016-12-12T04:10:09.737Z,0
2016-12-12T04:11:20.861Z,0
2016-12-12T04:12:32.008Z,0
2016-12-12T04:13:43.163Z,0
2016-12-12T04:14:54.291Z,0
2016-12-12T04:16:05.485Z,0
2016-12-12T04:17:16.656Z,0
2016-12-12T04:18:27.761Z,0
2016-12-12T04:19:38.920Z,0
2016-12-12T04:20:50.050Z,0
2016-12-12T04:22:01.250Z,0
2016-12-12T04:23:12.427Z,0
2016-12-12T04:24:23.565Z,0
2016-12-12T04:25:34.709Z,0
2016-12-12T04:26:45.845Z,0
2016-12-12T04:27:56.947Z,0
2016-12-12T04:29:08.170Z,0
2016-12-12T04:30:19.307Z,0
2016-12-12T04:31:30.625Z,0
2016-12-12T04:32:41.878Z,0
2016-12-12T04:33:53.052Z,0
2016-12-12T04:35:04.289Z,0
2016-12-12T04:36:15.424Z,0
2016-12-12T04:37:26.559Z,0
2016-12-12T04:38:37.689Z,0
2016-12-12T04:39:48.846Z,0
2016-12-12T04:41:00.082Z,0
2016-12-12T04:42:11.342Z,0
2016-12-12T04:43:22.472Z,0
2016-12-12T04:44:33.643Z,0
2016-12-12T04:45:44.779Z,0
2016-12-12T04:46:56.010Z,0
2016-12-12T04:48:07.221Z,0
2016-12-12T04:49:18.328Z,0
2016-12-12T04:50:29.503Z,0
2016-12-12T04:51:40.738Z,0
2016-12-12T04:52:51.912Z,0
2016-12-12T04:54:03.037Z,0
2016-12-12T04:55:14.338Z,0
2016-12-12T04:56:25.852Z,0
2016-12-12T04:57:37.295Z,0
2016-12-12T04:58:48.412Z,0
2016-12-12T05:00:01.920Z,0
2016-12-12T05:01:13.158Z,0
2016-12-12T05:02:24.547Z,0
2016-12-12T05:03:38.450Z,0
2016-12-12T05:04:50.255Z,0
2016-12-12T05:06:01.409Z,0
2016-12-12T05:07:12.598Z,0
2016-12-12T05:08:23.779Z,0
2016-12-12T05:09:34.934Z,0
2016-12-12T05:10:46.080Z,0
2016-12-12T05:11:57.249Z,0
2016-12-12T05:13:08.373Z,0
2016-12-12T05:14:19.524Z,0
2016-12-12T05:15:30.634Z,0
2016-12-12T05:16:41.838Z,0
2016-12-12T05:17:53.024Z,0
2016-12-12T05:19:04.160Z,0
2016-12-12T05:20:15.261Z,0
2016-12-12T05:21:26.404Z,0
2016-12-12T05:22:37.583Z,0
2016-12-12T05:23:48.766Z,0
2016-12-12T05:24:59.900Z,0
2016-12-12T05:26:11.434Z,0
2016-12-12T05:27:22.538Z,0
2016-12-12T05:28:34.336Z,0
2016-12-12T05:29:45.591Z,0
2016-12-12T05:30:57.127Z,0
2016-12-12T05:32:08.410Z,0
2016-12-12T05:33:19.927Z,0
2016-12-12T05:34:31.297Z,0
2016-12-12T05:35:42.663Z,0
2016-12-12T05:36:54.329Z,0
2016-12-12T05:38:05.717Z,0
2016-12-12T05:39:16.902Z,0
2016-12-12T05:40:28.117Z,0
2016-12-12T05:41:39.301Z,0
2016-12-12T05:42:50.525Z,0
2016-12-12T05:44:01.663Z,0
2016-12-12T05:45:26.170Z,0
2016-12-12T05:46:37.605Z,0
2016-12-12T05:47:49.244Z,0
2016-12-12T05:49:00.708Z,0
2016-12-12T05:50:11.931Z,0
2016-12-12T05:51:23.200Z,0
2016-12-12T05:52:34.732Z,0
2016-12-12T05:53:45.912Z,0
2016-12-12T05:54:58.164Z,0
2016-12-12T05:56:09.357Z,0
2016-12-12T05:57:20.644Z,0
2016-12-12T05:58:31.943Z,0
2016-12-12T05:59:43.643Z,0
2016-12-12T06:00:55.039Z,0
2016-12-12T06:02:06.339Z,0
2016-12-12T06:03:18.791Z,0
2016-12-12T06:04:29.918Z,0
2016-12-12T06:05:41.419Z,0
2016-12-12T06:06:52.526Z,0
2016-12-12T06:08:03.700Z,0
2016-12-12T06:09:14.868Z,0
2016-12-12T06:10:26.001Z,0
2016-12-12T06:11:37.174Z,0
2016-12-12T06:12:48.674Z,0
2016-12-12T06:14:02.114Z,0
2016-12-12T06:15:13.326Z,0
2016-12-12T06:16:39.586Z,0
2016-12-12T06:17:51.115Z,0
2016-12-12T06:19:02.655Z,0
2016-12-12T06:20:13.813Z,0
2016-12-12T06:21:25.128Z,0
2016-12-12T06:22:36.355Z,0
2016-12-12T06:23:47.536Z,0
2016-12-12T06:24:58.898Z,0
2016-12-12T06:26:10.024Z,0
2016-12-12T06:27:21.742Z,0
2016-12-12T06:28:33.018Z,0
2016-12-12T06:29:44.678Z,0
2016-12-12T06:30:56.551Z,0
2016-12-12T06:32:07.687Z,0
2016-12-12T06:33:19.298Z,0
2016-12-12T06:34:30.484Z,0
2016-12-12T06:35:41.691Z,0
2016-12-12T06:36:52.869Z,0
2016-12-12T06:38:03.991Z,0
2016-12-12T06:39:15.108Z,0
2016-12-12T06:40:26.259Z,0
2016-12-12T06:41:37.368Z,0
2016-12-12T06:42:48.810Z,0
2016-12-12T06:43:59.973Z,0
2016-12-12T06:45:11.262Z,0
2016-12-12T06:46:22.459Z,0
2016-12-12T06:47:33.854Z,0
2016-12-12T06:48:45.019Z,0
2016-12-12T06:49:56.171Z,0
2016-12-12T06:51:07.627Z,0
2016-12-12T06:52:18.799Z,0
2016-12-12T06:53:29.985Z,0
2016-12-12T06:54:41.472Z,0
2016-12-12T06:55:52.818Z,0
2016-12-12T06:57:03.939Z,0
2016-12-12T06:58:15.358Z,0
2016-12-12T06:59:26.810Z,0
2016-12-12T07:00:37.987Z,0
2016-12-12T07:01:49.120Z,0
2016-12-12T07:03:00.291Z,0
2016-12-12T07:04:11.557Z,0
2016-12-12T07:05:22.973Z,0
2016-12-12T07:06:34.110Z,0
2016-12-12T07:07:45.606Z,0
2016-12-12T07:08:56.745Z,0
2016-12-12T07:10:08.267Z,0
2016-12-12T07:11:19.439Z,0
2016-12-12T07:12:30.587Z,0
2016-12-12T07:13:42.067Z,0
2016-12-12T07:14:53.458Z,0
2016-12-12T07:16:04.925Z,0
2016-12-12T07:17:16.369Z,0
2016-12-12T07:18:27.552Z,0
2016-12-12T07:19:38.708Z,0
2016-12-12T07:20:49.857Z,0
2016-12-12T07:22:01.850Z,0
2016-12-12T07:23:12.989Z,0
2016-12-12T07:24:24.445Z,0
2016-12-12T07:25:35.560Z,0
2016-12-12T07:26:46.686Z,0
2016-12-12T07:28:00.100Z,0
2016-12-12T07:29:11.244Z,0
2016-12-12T07:30:22.418Z,0
2016-12-12T07:31:34.132Z,0
2016-12-12T07:32:45.307Z,0
2016-12-12T07:33:56.746Z,0
2016-12-12T07:35:07.897Z,5
2016-12-12T07:36:19.017Z,5
2016-12-12T07:37:30.389Z,5
2016-12-12T07:38:41.575Z,5
2016-12-12T07:39:52.813Z,5
2016-12-12T07:41:03.956Z,5
2016-12-12T07:42:15.079Z,5
2016-12-12T07:43:26.500Z,5
2016-12-12T07:44:37.652Z,10
2016-12-12T07:45:48.984Z,10
2016-12-12T07:47:00.100Z,5
2016-12-12T07:48:11.226Z,5
2016-12-12T07:49:22.604Z,5
2016-12-12T07:50:33.740Z,5
2016-12-12T07:51:44.987Z,5
2016-12-12T07:52:56.470Z,5
2016-12-12T07:54:07.915Z,5
2016-12-12T07:55:19.027Z,5
2016-12-12T07:56:30.451Z,5
2016-12-12T07:57:41.929Z,5
2016-12-12T07:58:53.486Z,5
2016-12-12T08:00:04.630Z,5
2016-12-12T08:01:15.796Z,10
2016-12-12T08:02:27.168Z,10
2016-12-12T08:03:38.401Z,10
2016-12-12T08:04:49.543Z,10
2016-12-12T08:06:01.050Z,10
2016-12-12T08:07:12.433Z,10
2016-12-12T08:08:23.822Z,10
2016-12-12T08:09:35.275Z,10
2016-12-12T08:10:46.476Z,10
2016-12-12T08:11:57.671Z,10
2016-12-12T08:13:08.818Z,10
2016-12-12T08:14:19.954Z,10
2016-12-12T08:15:31.150Z,10
2016-12-12T08:16:42.420Z,10
2016-12-12T08:17:54.063Z,10
2016-12-12T08:19:05.196Z,10
2016-12-12T08:20:16.401Z,10
2016-12-12T08:21:28.243Z,10
2016-12-12T08:22:39.427Z,10
2016-12-12T08:23:50.555Z,15
2016-12-12T08:25:01.689Z,15
2016-12-12T08:26:13.071Z,15
2016-12-12T08:27:24.254Z,15
2016-12-12T08:28:35.456Z,15
2016-12-12T08:29:46.610Z,15
2016-12-12T08:31:02.415Z,15
2016-12-12T08:32:14.015Z,15
2016-12-12T08:33:25.162Z,20
2016-12-12T08:34:36.439Z,20
2016-12-12T08:35:47.569Z,20
2016-12-12T08:36:58.816Z,20
2016-12-12T08:38:10.546Z,20
2016-12-12T08:39:21.690Z,20
2016-12-12T08:43:00.362Z,20
2016-12-12T08:44:11.764Z,20
2016-12-12T08:45:23.123Z,20
2016-12-12T08:46:34.342Z,20
2016-12-12T08:47:45.492Z,20
2016-12-12T08:48:56.611Z,20
2016-12-12T08:50:07.748Z,20
2016-12-12T08:51:18.885Z,25
2016-12-12T08:52:30.338Z,25
2016-12-12T08:53:41.486Z,25
2016-12-12T08:54:52.621Z,25
2016-12-12T08:56:03.811Z,25
2016-12-12T08:57:14.982Z,25
2016-12-12T08:58:26.468Z,25
2016-12-12T08:59:38.187Z,25
2016-12-12T09:00:49.330Z,25
2016-12-12T09:02:00.480Z,25
2016-12-12T09:03:11.602Z,25
2016-12-12T09:04:22.904Z,25
2016-12-12T09:05:34.279Z,25
2016-12-12T09:06:45.426Z,25
2016-12-12T09:07:56.594Z,25
2016-12-12T09:09:07.767Z,25
2016-12-12T09:10:18.979Z,25
2016-12-12T09:11:30.457Z,30
2016-12-12T09:12:41.883Z,30
2016-12-12T09:13:53.021Z,30
2016-12-12T09:15:04.164Z,30
2016-12-12T09:16:15.765Z,30
2016-12-12T09:17:26.914Z,30
2016-12-12T09:18:38.105Z,35
2016-12-12T09:19:49.565Z,35
2016-12-12T09:21:00.699Z,35
2016-12-12T09:22:12.186Z,35
2016-12-12T09:23:23.377Z,35
2016-12-12T09:24:34.553Z,40
2016-12-12T09:25:45.755Z,40
2016-12-12T09:26:56.875Z,40
2016-12-12T09:28:08.117Z,40
2016-12-12T09:29:19.476Z,40
2016-12-12T09:30:30.590Z,40
2016-12-12T09:31:42.116Z,35
2016-12-12T09:32:53.299Z,35
2016-12-12T09:34:04.541Z,35
2016-12-12T09:35:15.671Z,35
2016-12-12T09:36:27.080Z,35
2016-12-12T09:37:38.229Z,35
2016-12-12T09:38:49.474Z,35
2016-12-12T09:40:00.741Z,35
2016-12-12T09:41:12.282Z,35
2016-12-12T09:42:23.473Z,35
2016-12-12T09:43:34.882Z,35
2016-12-12T09:44:46.298Z,35
2016-12-12T09:45:57.479Z,35
2016-12-12T09:47:08.664Z,40
2016-12-12T09:48:19.856Z,40
2016-12-12T09:49:31.008Z,40
2016-12-12T09:50:42.156Z,40
2016-12-12T09:51:53.564Z,40
2016-12-12T09:53:04.828Z,40
2016-12-12T09:54:16.261Z,45
2016-12-12T09:55:27.379Z,45
2016-12-12T09:57:15.457Z,50
2016-12-12T09:58:26.871Z,45
2016-12-12T09:59:38.176Z,45
2016-12-12T10:00:49.478Z,40
2016-12-12T10:02:00.691Z,40
2016-12-12T10:03:12.253Z,40
2016-12-12T10:04:38.776Z,40
2016-12-12T10:05:50.312Z,40
2016-12-12T10:07:01.593Z,40
2016-12-12T10:08:12.913Z,40
2016-12-12T10:09:24.563Z,40
2016-12-12T10:10:35.787Z,40
2016-12-12T10:11:46.957Z,40
2016-12-12T10:12:58.333Z,40
2016-12-12T10:14:09.880Z,45
2016-12-12T10:15:21.033Z,45
2016-12-12T10:16:33.066Z,45
2016-12-12T10:17:44.216Z,45
2016-12-12T10:18:55.413Z,45
2016-12-12T10:20:07.042Z,50
2016-12-12T10:21:18.206Z,50
2016-12-12T10:22:29.642Z,50
2016-12-12T10:23:40.832Z,50
2016-12-12T10:24:52.415Z,50
2016-12-12T10:26:03.904Z,50
2016-12-12T10:27:15.291Z,55
2016-12-12T10:28:26.751Z,55
2016-12-12T10:29:37.900Z,55
2016-12-12T10:30:49.069Z,50
2016-12-12T10:32:00.236Z,50
2016-12-12T10:33:11.415Z,55
2016-12-12T10:34:22.886Z,55
2016-12-12T10:35:34.039Z,55
2016-12-12T10:36:45.548Z,55
2016-12-12T10:37:56.684Z,60
2016-12-12T10:39:08.072Z,60
2016-12-12T10:40:19.445Z,65
2016-12-12T10:41:30.616Z,65
2016-12-12T10:42:42.201Z,65
2016-12-12T10:43:53.383Z,65
2016-12-12T10:45:04.535Z,60
2016-12-12T10:46:16.170Z,60
2016-12-12T10:47:27.433Z,60
2016-12-12T10:48:38.833Z,65
2016-12-12T10:49:50.220Z,65
2016-12-12T10:51:01.329Z,65
2016-12-12T10:52:12.717Z,65
2016-12-12T10:53:24.139Z,65
2016-12-12T10:54:35.316Z,65
2016-12-12T10:55:46.473Z,60
2016-12-12T10:56:57.906Z,60
2016-12-12T10:58:09.082Z,60
2016-12-12T10:59:20.288Z,60
2016-12-12T11:00:31.751Z,60
2016-12-12T11:01:43.363Z,60
2016-12-12T11:02:54.524Z,60
2016-12-12T11:04:06.208Z,55
2016-12-12T11:05:17.362Z,55
2016-12-12T11:06:28.794Z,55
2016-12-12T11:07:39.931Z,55
2016-12-12T11:08:51.137Z,55
2016-12-12T11:10:02.824Z,55
2016-12-12T11:11:16.180Z,55
2016-12-12T11:12:27.366Z,50
2016-12-12T11:13:38.503Z,50
2016-12-12T11:14:49.725Z,55
2016-12-12T11:16:01.123Z,55
2016-12-12T11:17:12.537Z,55
2016-12-12T11:18:23.659Z,55
2016-12-12T11:19:34.796Z,60
2016-12-12T11:20:46.008Z,60
2016-12-12T11:21:57.715Z,60
2016-12-12T11:23:09.194Z,60
2016-12-12T11:24:20.579Z,65
2016-12-12T11:25:31.701Z,65
2016-12-12T11:26:43.155Z,65
2016-12-12T11:27:57.029Z,65
2016-12-12T11:29:10.931Z,70
2016-12-12T11:30:24.494Z,70
2016-12-12T11:31:38.285Z,70
2016-12-12T11:32:52.188Z,70
2016-12-12T11:34:05.793Z,70
2016-12-12T11:35:19.340Z,70
2016-12-12T11:36:32.979Z,70
2016-12-12T11:37:46.552Z,65
2016-12-12T11:39:00.414Z,60
2016-12-12T11:40:14.187Z,55
2016-12-12T11:41:27.805Z,55
2016-12-12T11:42:41.810Z,55
2016-12-12T11:43:55.634Z,50
2016-12-12T11:45:09.472Z,50
2016-12-12T11:46:23.007Z,50
2016-12-12T11:47:36.866Z,50
2016-12-12T11:48:50.819Z,50
2016-12-12T11:50:04.490Z,50
2016-12-12T11:51:18.345Z,50
2016-12-12T11:52:31.932Z,50
2016-12-12T11:53:45.485Z,50
2016-12-12T11:54:59.097Z,45
2016-12-12T11:56:13.202Z,45
2016-12-12T11:57:27.130Z,45
2016-12-12T11:58:40.676Z,45
2016-12-12T11:59:54.327Z,45
2016-12-12T12:01:08.273Z,45
2016-12-12T12:02:22.407Z,40
2016-12-12T12:03:36.287Z,40
2016-12-12T12:04:50.216Z,40
2016-12-12T12:06:03.860Z,40
2016-12-12T12:07:17.376Z,40
2016-12-12T12:08:31.220Z,35
2016-12-12T12:09:45.006Z,35
2016-12-12T12:10:58.579Z,35
2016-12-12T12:12:12.360Z,40
2016-12-12T12:13:25.963Z,40
2016-12-12T12:14:39.816Z,40
2016-12-12T12:15:53.719Z,40
2016-12-12T12:17:07.687Z,40
2016-12-12T12:18:21.251Z,45
2016-12-12T12:19:34.812Z,40
2016-12-12T12:20:48.459Z,40
2016-12-12T12:22:02.346Z,40
2016-12-12T12:23:15.875Z,40
2016-12-12T12:24:29.405Z,40
2016-12-12T12:25:43.091Z,40
2016-12-12T12:26:58.792Z,35
2016-12-12T12:28:12.648Z,35
2016-12-12T12:29:26.226Z,35
2016-12-12T12:30:39.845Z,35
2016-12-12T12:31:54.086Z,35
2016-12-12T12:33:07.948Z,35
2016-12-12T12:34:21.810Z,35
2016-12-12T12:35:35.421Z,35
2016-12-12T12:36:49.510Z,35
2016-12-12T12:38:03.110Z,35
2016-12-12T12:39:16.873Z,35
2016-12-12T12:40:30.730Z,35
2016-12-12T12:41:44.366Z,35
2016-12-12T12:42:58.214Z,35
2016-12-12T12:44:11.766Z,35
2016-12-12T12:45:25.328Z,35
2016-12-12T12:46:38.953Z,35
2016-12-12T12:47:52.534Z,40
2016-12-12T12:49:06.182Z,40
2016-12-12T12:50:19.757Z,40
2016-12-12T12:51:33.556Z,40
2016-12-12T12:52:47.487Z,40
2016-12-12T12:54:01.233Z,40
2016-12-12T12:55:15.111Z,40
2016-12-12T12:56:28.872Z,40
2016-12-12T12:57:42.525Z,40
2016-12-12T12:58:56.740Z,35
2016-12-12T13:00:10.279Z,35
2016-12-12T13:01:24.152Z,35
2016-12-12T13:02:37.924Z,35
2016-12-12T13:03:54.877Z,35
2016-12-12T13:05:08.956Z,35
2016-12-12T13:06:22.541Z,35
2016-12-12T13:07:36.091Z,35
2016-12-12T13:08:49.713Z,35
2016-12-12T13:10:03.335Z,35
2016-12-12T13:11:16.958Z,35
2016-12-12T13:12:30.547Z,35
2016-12-12T13:13:44.351Z,35
2016-12-12T13:14:58.168Z,35
2016-12-12T13:16:12.289Z,35
2016-12-12T13:17:26.275Z,35
2016-12-12T13:18:40.056Z,35
2016-12-12T13:19:53.830Z,35
2016-12-12T13:21:07.435Z,35
2016-12-12T13:22:21.084Z,35
2016-12-12T13:23:34.944Z,35
2016-12-12T13:24:48.956Z,30
2016-12-12T13:26:02.774Z,30
2016-12-12T13:27:16.784Z,30
2016-12-12T13:28:30.318Z,30
2016-12-12T13:29:44.045Z,30
2016-12-12T13:30:57.630Z,30
2016-12-12T13:32:11.210Z,30
2016-12-12T13:33:25.398Z,30
2016-12-12T13:34:39.322Z,30
2016-12-12T13:35:53.305Z,25
2016-12-12T13:37:06.853Z,25
2016-12-12T13:38:22.403Z,25
2016-12-12T13:39:35.981Z,25
2016-12-12T13:40:49.545Z,25
2016-12-12T13:42:03.594Z,25
2016-12-12T13:43:19.448Z,20
2016-12-12T13:44:33.496Z,20
2016-12-12T13:45:47.796Z,20
2016-12-12T13:47:01.365Z,20
2016-12-12T13:48:16.757Z,20
2016-12-12T13:49:30.415Z,20
2016-12-12T13:50:44.190Z,20
2016-12-12T13:51:58.146Z,15
2016-12-12T13:53:12.022Z,20
2016-12-12T13:54:27.283Z,20
2016-12-12T13:55:44.207Z,20
2016-12-12T13:56:57.792Z,20
2016-12-12T13:58:11.426Z,20
2016-12-12T13:59:25.300Z,20
2016-12-12T14:00:39.343Z,20
2016-12-12T14:01:53.393Z,20
2016-12-12T14:03:07.069Z,20
2016-12-12T14:04:20.722Z,20
2016-12-12T14:05:34.628Z,15
2016-12-12T14:06:49.695Z,15
2016-12-12T14:08:03.386Z,15
2016-12-12T14:09:17.375Z,15
2016-12-12T14:10:31.427Z,15
2016-12-12T14:11:45.749Z,15
2016-12-12T14:12:59.882Z,15
2016-12-12T14:14:13.967Z,15
2016-12-12T14:15:27.640Z,15
2016-12-12T14:16:41.684Z,15
2016-12-12T14:17:56.586Z,15
2016-12-12T14:19:11.651Z,15
2016-12-12T14:20:25.444Z,15
2016-12-12T14:21:39.046Z,10
2016-12-12T14:22:53.025Z,10
2016-12-12T14:24:07.929Z,10
2016-12-12T14:25:40.901Z,10
2016-12-12T14:26:54.489Z,10
2016-12-12T14:28:08.567Z,10
2016-12-12T14:29:23.095Z,10
2016-12-12T14:30:37.175Z,10
2016-12-12T14:31:51.271Z,10
2016-12-12T14:33:05.180Z,10
2016-12-12T14:34:19.483Z,5
2016-12-12T14:35:33.132Z,5
2016-12-12T14:36:46.791Z,5
2016-12-12T14:38:00.930Z,5
2016-12-12T14:39:14.510Z,5
2016-12-12T14:40:28.513Z,5
2016-12-12T14:41:42.100Z,5
2016-12-12T14:42:56.315Z,5
2016-12-12T14:44:10.668Z,5
2016-12-12T14:45:24.953Z,5
2016-12-12T14:46:38.561Z,5
2016-12-12T14:47:52.168Z,5
2016-12-12T14:49:06.089Z,5
2016-12-12T14:50:20.162Z,5
2016-12-12T14:51:34.606Z,5
2016-12-12T14:52:48.356Z,5
2016-12-12T14:54:01.974Z,5
2016-12-12T14:55:16.265Z,0
2016-12-12T14:56:30.486Z,0
2016-12-12T14:57:44.421Z,0
2016-12-12T14:58:58.033Z,0
2016-12-12T15:00:14.487Z,0
2016-12-12T15:01:28.247Z,0
2016-12-12T15:02:42.625Z,0
2016-12-12T15:03:56.434Z,0
2016-12-12T15:05:10.799Z,0
2016-12-12T15:06:26.450Z,0
2016-12-12T15:07:40.397Z,0
2016-12-12T15:08:54.487Z,0
2016-12-12T15:10:08.294Z,0
2016-12-12T15:11:22.024Z,0
2016-12-12T15:12:36.046Z,0
2016-12-12T15:13:47.233Z,0
2016-12-12T15:14:58.670Z,0
2016-12-12T15:16:10.129Z,0
2016-12-12T15:17:22.275Z,0
2016-12-12T15:18:33.625Z,0
2016-12-12T15:19:45.169Z,0
2016-12-12T15:20:56.328Z,0
2016-12-12T15:22:08.085Z,0
2016-12-12T15:23:19.372Z,0
2016-12-12T15:24:30.556Z,0
2016-12-12T15:25:41.694Z,0
2016-12-12T15:26:52.846Z,0
2016-12-12T15:28:04.324Z,0
2016-12-12T15:29:17.356Z,0
2016-12-12T15:30:28.522Z,0
2016-12-12T15:31:39.691Z,0
2016-12-12T15:32:50.864Z,0
2016-12-12T15:34:02.403Z,0
2016-12-12T15:35:13.596Z,0
2016-12-12T15:36:25.062Z,0
2016-12-12T15:37:36.300Z,0
2016-12-12T15:38:48.412Z,0
2016-12-12T15:40:00.155Z,0
2016-12-12T15:41:11.502Z,0
2016-12-12T15:42:22.809Z,0
2016-12-12T15:43:34.602Z,0
2016-12-12T15:44:45.867Z,0
2016-12-12T15:46:06.732Z,0
2016-12-12T15:47:22.570Z,0
2016-12-12T15:48:33.964Z,0
2016-12-12T15:49:49.714Z,0
2016-12-12T15:51:02.527Z,0
2016-12-12T15:52:14.950Z,0
2016-12-12T15:53:35.024Z,0
2016-12-12T15:54:58.112Z,0
2016-12-12T15:56:27.121Z,0
2016-12-12T15:57:42.270Z,0
2016-12-12T15:59:00.765Z,0
2016-12-12T16:00:19.850Z,0
2016-12-12T16:01:41.025Z,0
2016-12-12T16:03:00.857Z,0
2016-12-12T16:04:20.279Z,0
2016-12-12T16:05:40.697Z,0
2016-12-12T16:06:59.606Z,0
2016-12-12T16:08:18.267Z,0
2016-12-12T16:09:34.701Z,0
2016-12-12T16:10:56.285Z,0
2016-12-12T16:12:16.261Z,0
2016-12-12T16:13:35.464Z,0
2016-12-12T16:14:55.482Z,0
2016-12-12T16:16:09.224Z,0
2016-12-12T16:17:22.809Z,0
2016-12-12T16:18:34.689Z,0
2016-12-12T16:19:45.964Z,0
2016-12-12T16:21:01.172Z,0
2016-12-12T16:22:14.787Z,0
2016-12-12T16:23:25.998Z,0
2016-12-12T16:24:37.430Z,0
2016-12-12T16:26:04.432Z,0
2016-12-12T16:27:15.557Z,0
2016-12-12T16:28:26.799Z,0
2016-12-12T16:29:37.954Z,0
2016-12-12T16:30:49.191Z,0
2016-12-12T16:32:00.724Z,0
2016-12-12T16:33:12.095Z,0
2016-12-12T16:34:23.260Z,0
2016-12-12T16:35:34.410Z,0
2016-12-12T16:36:45.642Z,0
2016-12-12T16:37:56.921Z,0
2016-12-12T16:39:08.608Z,0
2016-12-12T16:40:19.851Z,0
2016-12-12T16:41:33.695Z,0
2016-12-12T16:43:23.661Z,0
2016-12-12T16:44:37.574Z,0
2016-12-12T16:45:49.223Z,0
2016-12-12T16:47:00.540Z,0
2016-12-12T16:48:12.089Z,0
2016-12-12T16:49:23.540Z,0
2016-12-12T16:50:35.324Z,0
2016-12-12T16:51:46.849Z,0
2016-12-12T16:52:58.064Z,0
2016-12-12T16:54:09.384Z,0
2016-12-12T16:55:20.920Z,0
2016-12-12T16:56:32.470Z,0
2016-12-12T16:57:43.875Z,0
2016-12-12T16:58:55.661Z,0
2016-12-12T17:00:07.013Z,0
2016-12-12T17:01:18.169Z,0
2016-12-12T17:02:29.819Z,0
2016-12-12T17:03:41.059Z,0
2016-12-12T17:04:52.610Z,0
2016-12-12T17:06:03.770Z,0
2016-12-12T17:07:15.263Z,0
2016-12-12T17:08:26.737Z,0
2016-12-12T17:09:38.308Z,0
2016-12-12T17:10:49.539Z,0
2016-12-12T17:12:01.048Z,0
2016-12-12T17:13:12.276Z,0
2016-12-12T17:14:24.317Z,0
2016-12-12T17:15:35.873Z,0
2016-12-12T17:16:47.332Z,0
2016-12-12T17:17:59.110Z,0
2016-12-12T17:19:10.343Z,0
2016-12-12T17:20:22.083Z,0
2016-12-12T17:21:33.526Z,0
2016-12-12T17:22:44.970Z,0
2016-12-12T17:23:56.479Z,0
2016-12-12T17:25:07.730Z,0
2016-12-12T17:26:19.184Z,0
2016-12-12T17:27:30.546Z,0
2016-12-12T17:28:41.791Z,0
2016-12-12T17:29:53.397Z,0
2016-12-12T17:31:04.896Z,0
2016-12-12T17:32:18.517Z,0
2016-12-12T17:33:29.818Z,0
2016-12-12T17:34:41.075Z,0
2016-12-12T17:35:52.587Z,0
2016-12-12T17:37:03.737Z,0
2016-12-12T17:38:15.540Z,0
2016-12-12T17:39:26.798Z,0
2016-12-12T17:40:37.946Z,0
2016-12-12T17:41:49.141Z,0